Time;durP1;ratioP1;P1;durP2;ratioP2;P2;SDS_P1;SDS_P2;PMS_P1;PMS_P2;Temp;Humidity;BMP_temperature;BMP_pressure;BME280_temperature;BME280_humidity;BME280_pressure;Samples;Min_cycle;Max_cycle;Signal;HPM_P1;HPM_P2
2023/10/27 00:02:17;;;;;;;58.72;31.05;;;;;;;8.33;100.00;98782.31;10470936;28;20072;-82
2023/10/27 00:07:18;;;;;;;58.35;31.25;;;;;;;8.33;100.00;98782.31;10471982;28;20132;-82
2023/10/27 00:12:19;;;;;;;57.30;28.13;;;;;;;8.35;100.00;98776.31;10483633;28;20051;-82
2023/10/27 00:17:20;;;;;;;54.22;31.98;;;;;;;8.33;100.00;98780.59;10474083;28;20115;-82
2023/10/27 00:22:20;;;;;;;54.70;26.13;;;;;;;8.32;100.00;98776.22;10478540;28;20037;-82
2023/10/27 00:27:20;;;;;;;57.78;29.73;;;;;;;8.29;100.00;98778.78;10468704;28;20098;-82
2023/10/27 00:32:21;;;;;;;57.60;31.98;;;;;;;8.28;100.00;98763.06;10474504;28;20046;-83
2023/10/27 00:37:22;;;;;;;44.50;26.00;;;;;;;8.28;100.00;98757.88;10459526;28;20044;-82
2023/10/27 00:42:22;;;;;;;56.53;29.73;;;;;;;8.27;100.00;98749.19;10467277;28;20136;-82
2023/10/27 00:47:26;;;;;;;45.08;24.70;;;;;;;8.22;100.00;98751.66;10462433;28;20075;-82
2023/10/27 00:52:26;;;;;;;51.17;28.73;;;;;;;8.25;100.00;98748.28;10451162;28;20041;-82
2023/10/27 00:57:27;;;;;;;63.08;29.30;;;;;;;8.23;100.00;98752.56;10471403;28;20454;-82
2023/10/27 01:02:27;;;;;;;43.72;24.15;;;;;;;8.26;100.00;98747.41;10473269;28;20037;-81
2023/10/27 01:07:28;;;;;;;57.22;30.30;;;;;;;8.25;100.00;98743.06;10464068;28;20107;-81
2023/10/27 01:12:28;;;;;;;56.35;26.83;;;;;;;8.22;100.00;98737.78;10454759;28;20045;-80
2023/10/27 01:17:29;;;;;;;50.83;23.33;;;;;;;8.21;100.00;98738.63;10467540;28;20113;-82
2023/10/27 01:22:30;;;;;;;42.42;18.25;;;;;;;8.20;100.00;98731.66;10464989;28;20046;-82
2023/10/27 01:27:30;;;;;;;42.97;22.88;;;;;;;8.17;100.00;98731.56;10470943;28;20040;-82
2023/10/27 01:32:31;;;;;;;44.85;23.27;;;;;;;8.21;100.00;98726.44;10469546;28;20123;-81
2023/10/27 01:37:31;;;;;;;45.03;20.73;;;;;;;8.17;100.00;98726.38;10457360;28;20127;-82
2023/10/27 01:42:34;;;;;;;51.40;22.13;;;;;;;8.15;100.00;98728.06;10468263;28;20178;-81
2023/10/27 01:47:34;;;;;;;37.85;19.98;;;;;;;8.15;100.00;98728.91;10453971;28;20179;-81
2023/10/27 01:52:35;;;;;;;38.30;18.38;;;;;;;8.15;100.00;98726.31;10448840;28;20036;-81
2023/10/27 01:57:35;;;;;;;35.38;17.27;;;;;;;8.19;100.00;98725.53;10468382;28;20115;-81
2023/10/27 02:02:36;;;;;;;32.38;15.52;;;;;;;8.21;100.00;98720.38;10445931;28;20048;-81
2023/10/27 02:07:36;;;;;;;33.15;17.23;;;;;;;8.15;100.00;98715.03;10465100;28;20435;-80
2023/10/27 02:12:37;;;;;;;32.15;17.02;;;;;;;8.21;100.00;98710.81;10463813;28;20067;-80
2023/10/27 02:17:39;;;;;;;32.65;16.92;;;;;;;8.19;100.00;98707.28;10479947;28;20064;-80
2023/10/27 02:22:39;;;;;;;51.15;19.10;;;;;;;8.12;100.00;98694.13;10480515;28;20044;-80
2023/10/27 02:27:40;;;;;;;37.63;16.88;;;;;;;8.08;100.00;98688.84;10466178;28;20060;-80
2023/10/27 02:32:41;;;;;;;35.20;15.27;;;;;;;8.09;100.00;98679.28;10479907;28;20071;-81
2023/10/27 02:37:41;;;;;;;32.15;15.75;;;;;;;8.04;100.00;98681.78;10472432;28;20497;-81
2023/10/27 02:42:42;;;;;;;23.70;14.95;;;;;;;8.05;100.00;98675.72;10485601;28;20128;-81
2023/10/27 02:47:42;;;;;;;29.38;13.48;;;;;;;8.07;100.00;98676.66;10472872;28;20072;-80
2023/10/27 02:52:43;;;;;;;32.22;14.15;;;;;;;8.11;100.00;98669.75;10481444;28;20537;-81
2023/10/27 02:57:43;;;;;;;29.00;12.48;;;;;;;8.10;100.00;98665.41;10471613;28;20072;-81
2023/10/27 03:02:44;;;;;;;24.08;12.60;;;;;;;8.06;100.00;98664.47;10472024;28;20460;-81
2023/10/27 03:07:44;;;;;;;24.92;12.27;;;;;;;8.04;100.00;98665.25;10471299;28;20089;-81
2023/10/27 03:12:45;;;;;;;22.95;12.45;;;;;;;7.97;100.00;98652.94;10473532;28;20057;-82
2023/10/27 03:17:46;;;;;;;25.27;12.65;;;;;;;7.93;100.00;98646.81;10476145;28;20128;-81
2023/10/27 03:22:46;;;;;;;26.90;13.50;;;;;;;7.93;100.00;98646.81;10450979;28;20128;-82
2023/10/27 03:27:47;;;;;;;27.08;12.93;;;;;;;7.98;100.00;98646.88;10461686;28;20032;-82
2023/10/27 03:32:48;;;;;;;43.13;15.23;;;;;;;7.96;100.00;98645.97;10469910;28;20127;-81
2023/10/27 03:37:48;;;;;;;28.55;13.90;;;;;;;7.98;100.00;98649.50;10472746;28;20043;-81
2023/10/27 03:42:49;;;;;;;35.03;15.80;;;;;;;7.96;100.00;98643.38;10468591;28;20111;-81
2023/10/27 03:47:49;;;;;;;42.47;19.33;;;;;;;7.96;100.00;98644.28;10460558;28;20580;-81
2023/10/27 03:52:50;;;;;;;39.75;17.45;;;;;;;7.92;100.00;98643.31;10453840;28;20067;-81
2023/10/27 03:57:52;;;;;;;36.72;16.17;;;;;;;7.91;100.00;98638.06;10468196;28;20139;-81
2023/10/27 04:02:53;;;;;;;35.58;17.85;;;;;;;7.91;100.00;98630.25;10472492;28;20043;-79
2023/10/27 04:07:53;;;;;;;31.20;15.27;;;;;;;7.88;100.00;98633.66;10466819;28;20047;-80
2023/10/27 04:12:54;;;;;;;35.80;14.73;;;;;;;7.90;100.00;98625.91;10464614;28;20048;-80
2023/10/27 04:17:54;;;;;;;29.73;13.63;;;;;;;7.86;100.00;98622.31;10485071;28;20218;-81
2023/10/27 04:22:55;;;;;;;43.75;18.27;;;;;;;7.85;100.00;98619.72;10462633;28;20127;-80
2023/10/27 04:27:55;;;;;;;25.77;14.60;;;;;;;7.93;100.00;98613.81;10436466;28;20044;-80
2023/10/27 04:32:57;;;;;;;32.47;11.18;;;;;;;8.00;100.00;98619.16;10449725;28;20044;-80
2023/10/27 04:38:01;;;;;;;27.92;11.43;;;;;;;7.94;100.00;98614.69;10430246;28;20048;-80
2023/10/27 04:43:03;;;;;;;36.33;14.27;;;;;;;7.91;100.00;98612.03;10438051;28;20037;-80
2023/10/27 04:48:06;;;;;;;20.63;10.25;;;;;;;7.96;100.00;98612.13;10471131;28;20041;-78
2023/10/27 04:53:07;;;;;;;30.42;11.82;;;;;;;7.93;100.00;98610.34;10462253;28;20055;-79
2023/10/27 04:58:07;;;;;;;23.13;13.10;;;;;;;7.94;100.00;98605.16;10450116;28;20354;-80
2023/10/27 05:03:08;;;;;;;31.63;11.23;;;;;;;8.00;100.00;98600.91;10472441;28;20097;-82
2023/10/27 05:08:08;;;;;;;28.08;11.70;;;;;;;8.03;100.00;98594.06;10468868;28;20067;-82
2023/10/27 05:13:09;;;;;;;20.52;9.82;;;;;;;8.01;100.00;98593.16;10439420;28;20419;-81
2023/10/27 05:18:09;;;;;;;24.60;10.55;;;;;;;8.04;100.00;98597.53;10463608;28;20032;-83
2023/10/27 05:23:10;;;;;;;20.00;8.77;;;;;;;8.05;100.00;98586.25;10468253;28;20395;-81
2023/10/27 05:28:10;;;;;;;28.40;12.13;;;;;;;8.06;100.00;98591.53;10465104;28;20132;-81
2023/10/27 05:33:11;;;;;;;16.60;10.07;;;;;;;8.16;100.00;98586.50;10428709;28;20061;-82
2023/10/27 05:38:11;;;;;;;29.13;11.35;;;;;;;8.21;100.00;98577.91;10464286;28;20447;-81
2023/10/27 05:43:16;;;;;;;28.10;9.52;;;;;;;8.17;100.00;98581.31;10457269;28;20120;-81
2023/10/27 05:48:17;;;;;;;23.88;13.45;;;;;;;8.16;100.00;98589.97;10445722;28;20028;-81
2023/10/27 05:53:18;;;;;;;25.40;13.65;;;;;;;8.17;100.00;98590.88;10448473;28;20476;-81
2023/10/27 05:58:18;;;;;;;24.90;12.70;;;;;;;8.18;100.00;98590.03;10463109;28;20451;-81
2023/10/27 06:03:19;;;;;;;28.20;15.35;;;;;;;8.21;100.00;98585.72;10453406;28;20116;-81
2023/10/27 06:08:19;;;;;;;23.75;13.15;;;;;;;8.25;100.00;98596.22;10457169;28;20029;-81
2023/10/27 06:13:20;;;;;;;25.10;12.38;;;;;;;8.25;100.00;98586.69;10476930;28;20037;-85
2023/10/27 06:18:20;;;;;;;25.25;13.30;;;;;;;8.27;100.00;98591.91;10464273;28;20044;-84
2023/10/27 06:23:21;;;;;;;24.23;12.13;;;;;;;8.30;100.00;98597.19;10476815;28;20042;-81
2023/10/27 06:28:21;;;;;;;24.25;13.73;;;;;;;8.30;100.00;98599.81;10474893;28;20045;-80
2023/10/27 06:33:22;;;;;;;24.90;12.15;;;;;;;8.29;100.00;98601.53;10471851;28;20100;-81
2023/10/27 06:38:22;;;;;;;22.92;11.90;;;;;;;8.29;100.00;98606.75;10464021;28;20086;-81
2023/10/27 06:43:23;;;;;;;27.83;15.00;;;;;;;8.30;100.00;98607.63;10461822;28;20185;-81
2023/10/27 06:48:23;;;;;;;36.15;15.10;;;;;;;8.34;100.00;98614.66;10459705;28;20112;-80
2023/10/27 06:53:24;;;;;;;27.20;14.95;;;;;;;8.36;100.00;98612.97;10454373;28;20091;-81
2023/10/27 06:58:24;;;;;;;42.28;16.20;;;;;;;8.39;100.00;98618.22;10448319;28;20175;-81
2023/10/27 07:03:25;;;;;;;27.20;15.63;;;;;;;8.43;100.00;98627.88;10459958;28;20502;-80
2023/10/27 07:08:25;;;;;;;31.45;16.23;;;;;;;8.45;100.00;98627.91;10470200;28;20127;-80
2023/10/27 07:13:26;;;;;;;29.67;17.05;;;;;;;8.48;100.00;98623.63;10479339;28;20463;-81
2023/10/27 07:18:27;;;;;;;34.33;17.50;;;;;;;8.46;100.00;98635.75;10449536;28;20051;-80
2023/10/27 07:23:28;;;;;;;31.52;16.83;;;;;;;8.46;100.00;98648.78;10435863;28;20485;-79
2023/10/27 07:28:29;;;;;;;33.20;18.03;;;;;;;8.49;100.00;98646.28;10463354;28;20053;-81
2023/10/27 07:33:29;;;;;;;31.80;15.25;;;;;;;8.56;100.00;98654.22;10466865;28;22208;-81
2023/10/27 07:38:30;;;;;;;40.65;16.58;;;;;;;8.61;100.00;98660.41;10460056;28;20036;-80
2023/10/27 07:43:31;;;;;;;44.33;21.35;;;;;;;8.66;100.00;98666.59;10450377;28;20119;-80
2023/10/27 07:48:32;;;;;;;33.22;17.45;;;;;;;8.73;100.00;98668.47;10476209;28;20036;-80
2023/10/27 07:53:32;;;;;;;33.17;17.83;;;;;;;8.82;100.00;98665.19;10480842;28;20037;-81
2023/10/27 07:58:33;;;;;;;40.47;17.08;;;;;;;8.89;100.00;98667.06;10466843;28;20040;-81
2023/10/27 08:03:38;;;;;;;29.70;18.17;;;;;;;8.96;100.00;98675.88;10468818;28;20093;-80
2023/10/27 08:08:38;;;;;;;41.65;21.40;;;;;;;8.99;100.00;98683.75;10465777;28;20570;-81
2023/10/27 08:13:39;;;;;;;32.30;18.63;;;;;;;9.09;100.00;98685.69;10471083;28;20124;-82
2023/10/27 08:18:39;;;;;;;35.53;19.00;;;;;;;9.18;100.00;98678.88;10466900;28;20041;-82
2023/10/27 08:23:40;;;;;;;37.47;20.25;;;;;;;9.25;100.00;98688.56;10470401;28;20033;-81
2023/10/27 08:28:41;;;;;;;41.83;19.00;;;;;;;9.34;100.00;98686.13;10463291;28;20396;-79
2023/10/27 08:33:41;;;;;;;43.75;20.55;;;;;;;9.47;100.00;98692.47;10475540;28;20040;-82
2023/10/27 08:38:42;;;;;;;54.08;22.55;;;;;;;9.54;100.00;98701.25;10468630;28;20476;-82
2023/10/27 08:43:42;;;;;;;74.03;28.45;;;;;;;9.49;100.00;98701.19;10480245;28;20032;-82
2023/10/27 08:48:43;;;;;;;53.75;25.10;;;;;;;9.52;100.00;98701.25;10472917;28;20049;-83
2023/10/27 08:53:44;;;;;;;42.83;21.80;;;;;;;9.58;100.00;98703.06;10476906;28;20071;-82
2023/10/27 08:58:50;;;;;;;41.57;21.70;;;;;;;9.70;100.00;98702.41;10458825;28;20040;-81
2023/10/27 09:04:06;;;;;;;44.05;23.73;;;;;;;9.81;100.00;98697.34;10432332;28;20041;-82
2023/10/27 09:09:07;;;;;;;48.42;22.20;;;;;;;10.04;100.00;98704.66;10457333;28;20448;-83
2023/10/27 09:14:18;;;;;;;34.58;18.55;;;;;;;10.10;100.00;98707.38;10471083;28;20040;-83
2023/10/27 09:19:25;;;;;;;37.15;20.58;;;;;;;10.11;100.00;98709.13;10444015;28;20488;-84
2023/10/27 09:24:32;;;;;;;33.35;19.58;;;;;;;10.22;100.00;98709.31;10452077;28;20040;-82
2023/10/27 09:29:40;;;;;;;36.55;18.52;;;;;;;10.22;100.00;98711.91;10434281;28;20045;-83
2023/10/27 09:34:40;;;;;;;28.60;17.85;;;;;;;10.23;100.00;98714.53;10456346;28;20115;-81
2023/10/27 09:39:41;;;;;;;29.48;18.05;;;;;;;10.21;100.00;98725.84;10472369;28;20184;-81
2023/10/27 09:44:51;;;;;;;26.20;15.82;;;;;;;10.17;100.00;98726.66;10465203;28;20047;-79
2023/10/27 09:50:07;;;;;;;26.88;15.30;;;;;;;10.19;100.00;98731.03;10468489;28;20094;-81
2023/10/27 09:55:07;;;;;;;39.50;24.08;;;;;;;10.28;100.00;98725.06;10448661;28;20063;-82
2023/10/27 10:00:09;;;;;;;25.25;13.73;;;;;;;10.27;100.00;98741.63;10449458;28;20045;-82
2023/10/27 10:05:11;;;;;;;;;;;;;;;10.11;100.00;98746.63;10466600;28;20219;-81
2023/10/27 10:10:33;;;;;;;26.60;15.40;;;;;;;10.27;100.00;98745.09;10465494;28;20438;-83
2023/10/27 10:15:37;;;;;;;22.05;12.80;;;;;;;10.25;100.00;98751.19;10467452;28;20041;-82
2023/10/27 10:21:16;;;;;;;22.17;14.90;;;;;;;10.13;100.00;98755.34;10460298;28;20124;-82
2023/10/27 10:26:10;;;;;;;26.05;15.95;;;;;;;10.20;100.00;98755.44;10469143;28;20063;-82
2023/10/27 10:31:11;;;;;;;26.30;14.55;;;;;;;10.27;100.00;98760.78;10473089;28;20046;-82
2023/10/27 10:36:22;;;;;;;39.05;17.13;;;;;;;10.29;100.00;98760.81;10469370;28;20090;-83
2023/10/27 10:41:54;;;;;;;27.88;17.13;;;;;;;10.40;100.00;98759.28;10471177;28;20047;-83
2023/10/27 10:46:55;;;;;;;;;;;;;;;10.56;100.00;98767.34;10438940;28;20518;-83
2023/10/27 10:51:56;;;;;;;28.70;17.05;;;;;;;10.94;100.00;98753.00;10454263;28;19924;-84
2023/10/27 10:57:01;;;;;;;24.93;14.87;;;;;;;11.26;100.00;98756.00;10469895;28;20044;-83
2023/10/27 11:02:01;;;;;;;24.42;12.55;;;;;;;11.33;100.00;98751.69;10453567;28;20057;-83
2023/10/27 11:07:03;;;;;;;15.50;10.70;;;;;;;11.60;100.00;98739.72;10470961;28;20055;-83
2023/10/27 11:12:04;;;;;;;21.95;14.55;;;;;;;11.71;100.00;98735.47;10452980;28;20464;-82
2023/10/27 11:17:05;;;;;;;18.35;8.43;;;;;;;11.63;100.00;98726.66;10443844;28;20033;-82
2023/10/27 11:22:05;;;;;;;19.17;9.18;;;;;;;11.42;100.00;98715.13;10449673;28;20044;-82
2023/10/27 11:27:06;;;;;;;23.17;10.32;;;;;;;11.29;100.00;98718.47;10439998;28;20155;-82
2023/10/27 11:32:16;;;;;;;18.67;10.20;;;;;;;11.19;100.00;98720.13;10459891;28;20044;-83
2023/10/27 11:37:16;;;;;;;22.95;12.80;;;;;;;11.14;100.00;98717.44;10468498;28;20032;-82
2023/10/27 11:42:17;;;;;;;22.25;12.27;;;;;;;11.12;100.00;98718.31;10460839;28;20051;-82
2023/10/27 11:47:17;;;;;;;23.33;11.00;;;;;;;11.00;100.00;98729.50;10467034;28;20125;-83
2023/10/27 11:52:19;;;;;;;25.27;13.40;;;;;;;11.02;100.00;98731.28;10449939;28;20107;-81
2023/10/27 11:57:20;;;;;;;23.55;10.52;;;;;;;10.82;100.00;98746.75;10466406;28;20478;-82
2023/10/27 12:02:20;;;;;;;19.73;10.65;;;;;;;10.74;100.00;98748.38;10464871;28;20128;-81
2023/10/27 12:07:21;;;;;;;24.85;12.70;;;;;;;10.57;100.00;98749.03;10455875;28;20045;-82
2023/10/27 12:12:25;;;;;;;18.27;10.40;;;;;;;10.65;100.00;98756.09;10441846;28;20051;-82
2023/10/27 12:17:25;;;;;;;18.77;10.75;;;;;;;10.65;100.00;98769.19;10464181;28;20044;-84
2023/10/27 12:22:26;;;;;;;20.15;9.75;;;;;;;10.67;100.00;98764.84;10455961;28;20119;-82
2023/10/27 12:27:26;;;;;;;13.40;5.57;;;;;;;10.70;100.00;98780.59;10439029;28;20109;-84
2023/10/27 12:32:32;;;;;;;10.60;5.05;;;;;;;10.69;100.00;98779.72;10455530;28;20090;-83
2023/10/27 12:37:33;;;;;;;9.18;5.65;;;;;;;10.78;100.00;98768.50;10459159;28;20064;-83
2023/10/27 12:42:33;;;;;;;9.32;4.03;;;;;;;10.99;100.00;98773.13;10474706;28;20178;-84
2023/10/27 12:47:34;;;;;;;12.18;4.70;;;;;;;11.22;100.00;98764.69;10457046;28;20033;-83
2023/10/27 12:52:34;;;;;;;10.02;4.00;;;;;;;11.60;100.00;98751.09;10433317;28;20119;-82
2023/10/27 12:57:35;;;;;;;9.45;4.13;;;;;;;11.50;100.00;98743.13;10465698;28;20510;-83
2023/10/27 13:02:35;;;;;;;11.43;5.35;;;;;;;11.31;100.00;98738.59;10442997;28;20040;-83
2023/10/27 13:07:36;;;;;;;12.90;3.83;;;;;;;11.14;100.00;98737.53;10445673;28;20169;-83
2023/10/27 13:12:37;;;;;;;8.40;4.03;;;;;;;11.08;100.00;98748.78;10445633;28;20610;-84
2023/10/27 13:17:38;;;;;;;8.90;5.40;;;;;;;11.19;100.00;98750.66;10465900;28;20037;-84
2023/10/27 13:22:38;;;;;;;9.30;4.10;;;;;;;11.23;100.00;98752.44;10458422;28;20400;-83
2023/10/27 13:27:39;;;;;;;9.85;4.68;;;;;;;11.28;100.00;98756.88;10460843;28;20147;-83
2023/10/27 13:32:41;;;;;;;11.55;4.00;;;;;;;11.39;100.00;98759.59;10458860;28;20128;-84
2023/10/27 13:37:42;;;;;;;7.82;4.15;;;;;;;11.37;100.00;98753.47;10447229;28;20107;-84
2023/10/27 13:42:43;;;;;;;15.60;4.25;;;;;;;11.44;100.00;98757.06;10474803;28;20065;-84
2023/10/27 13:47:44;;;;;;;7.53;3.83;;;;;;;11.36;100.00;98764.81;10433044;28;20469;-83
2023/10/27 13:52:46;;;;;;;8.13;4.05;;;;;;;11.24;100.00;98759.44;10456833;28;20029;-83
2023/10/27 13:57:46;;;;;;;16.63;6.70;;;;;;;11.15;100.00;98779.44;10450806;28;20060;-83
2023/10/27 14:02:47;;;;;;;13.63;5.13;;;;;;;11.13;100.00;98790.75;10462982;28;20346;-83
2023/10/27 14:07:48;;;;;;;11.00;5.43;;;;;;;11.12;100.00;98795.09;10454398;28;20067;-82
2023/10/27 14:12:48;;;;;;;12.65;7.38;;;;;;;11.18;100.00;98796.94;10478777;28;20067;-83
2023/10/27 14:17:49;;;;;;;9.23;4.95;;;;;;;11.21;100.00;98806.53;10460065;28;20037;-84
2023/10/27 14:22:49;;;;;;;12.35;6.22;;;;;;;11.27;100.00;98809.22;10454373;28;20558;-83
2023/10/27 14:27:50;;;;;;;16.23;6.20;;;;;;;11.52;100.00;98807.78;10439957;28;20028;-83
2023/10/27 14:32:50;;;;;;;13.63;5.30;;;;;;;11.68;100.00;98814.03;10432864;28;20128;-82
2023/10/27 14:37:52;;;;;;;10.02;5.05;;;;;;;11.75;100.00;98810.63;10468885;28;20449;-80
2023/10/27 14:42:57;;;;;;;13.30;5.47;;;;;;;11.76;100.00;98801.03;10451548;28;20052;-81
2023/10/27 14:47:58;;;;;;;11.57;4.95;;;;;;;11.80;100.00;98807.16;10463288;28;20501;-80
2023/10/27 14:52:59;;;;;;;11.50;4.45;;;;;;;11.72;100.00;98810.59;10472149;28;20139;-80
2023/10/27 14:57:59;;;;;;;13.70;3.55;;;;;;;11.59;100.00;98824.44;10476685;28;20122;-80
2023/10/27 15:03:00;;;;;;;5.85;2.22;;;;;;;11.58;100.00;98827.91;10459511;28;20131;-80
2023/10/27 15:08:00;;;;;;;6.03;3.47;;;;;;;11.52;100.00;98818.25;10475858;28;20105;-83
2023/10/27 15:13:01;;;;;;;5.88;2.85;;;;;;;11.39;100.00;98829.47;10445793;28;20040;-81
2023/10/27 15:18:02;;;;;;;9.40;2.58;;;;;;;11.19;100.00;98827.47;10469063;28;20111;-80
2023/10/27 15:23:02;;;;;;;6.80;1.92;;;;;;;11.06;100.00;98821.19;10463086;28;20417;-79
2023/10/27 15:28:03;;;;;;;6.47;2.63;;;;;;;10.97;100.00;98823.69;10478790;28;20044;-80
2023/10/27 15:33:03;;;;;;;4.05;1.38;;;;;;;10.71;100.00;98834.69;10460172;28;20040;-79
2023/10/27 15:38:04;;;;;;;5.85;1.42;;;;;;;10.55;100.00;98834.44;10478065;28;20125;-81
2023/10/27 15:43:04;;;;;;;6.68;2.08;;;;;;;10.32;100.00;98835.78;10454100;28;20061;-80
2023/10/27 15:48:05;;;;;;;5.93;1.23;;;;;;;10.11;100.00;98850.28;10469623;28;20177;-81
2023/10/27 15:53:06;;;;;;;2.95;1.65;;;;;;;10.05;100.00;98853.69;10470124;28;20102;-80
2023/10/27 15:58:06;;;;;;;6.97;1.70;;;;;;;9.73;100.00;98855.69;10477771;28;20119;-80
2023/10/27 16:03:07;;;;;;;6.22;1.50;;;;;;;9.56;100.00;98866.69;10455419;28;20119;-79
2023/10/27 16:08:07;;;;;;;7.70;1.65;;;;;;;9.27;100.00;98880.03;10461879;28;20048;-80
2023/10/27 16:13:08;;;;;;;14.30;2.42;;;;;;;9.07;100.00;98903.13;10466467;28;20124;-80
2023/10/27 16:18:09;;;;;;;8.52;1.95;;;;;;;8.88;100.00;98925.28;10431736;28;20114;-79
2023/10/27 16:23:09;;;;;;;5.82;1.90;;;;;;;8.75;100.00;98945.00;10445116;28;20033;-79
2023/10/27 16:28:10;;;;;;;5.50;2.05;;;;;;;8.51;100.00;98948.75;10469727;28;20061;-79
2023/10/27 16:33:12;;;;;;;11.93;3.08;;;;;;;8.35;100.00;98950.94;10448443;28;20048;-79
2023/10/27 16:38:13;;;;;;;11.05;2.30;;;;;;;8.31;100.00;98954.31;10455499;28;20033;-79
2023/10/27 16:43:13;;;;;;;7.78;2.55;;;;;;;8.19;100.00;98962.69;10462340;28;20116;-80
2023/10/27 16:48:14;;;;;;;55.97;6.88;;;;;;;8.12;100.00;98965.97;10481126;28;20189;-80
2023/10/27 16:53:14;;;;;;;8.57;2.47;;;;;;;8.06;100.00;98979.72;10454002;28;20128;-79
2023/10/27 16:58:15;;;;;;;7.60;2.30;;;;;;;7.96;100.00;98980.31;10457759;28;20033;-80
2023/10/27 17:03:16;;;;;;;17.75;6.40;;;;;;;7.91;100.00;98985.38;10463090;28;20045;-79
2023/10/27 17:08:16;;;;;;;13.27;3.47;;;;;;;7.90;100.00;98970.59;10467384;28;20127;-80
2023/10/27 17:13:18;;;;;;;8.18;2.80;;;;;;;7.80;100.00;98973.75;10466465;28;20398;-79
2023/10/27 17:18:19;;;;;;;8.10;2.50;;;;;;;7.71;100.00;98978.72;10459575;28;20131;-80
2023/10/27 17:23:19;;;;;;;8.32;2.78;;;;;;;7.54;100.00;98980.84;10436011;28;20148;-80
2023/10/27 17:28:20;;;;;;;28.52;6.18;;;;;;;7.52;100.00;98992.94;10449119;28;20033;-80
2023/10/27 17:33:20;;;;;;;9.38;2.95;;;;;;;7.52;100.00;98992.94;10423971;28;20056;-79
2023/10/27 17:38:22;;;;;;;15.65;4.13;;;;;;;7.52;100.00;98987.72;10463630;28;20158;-79
2023/10/27 17:43:22;;;;;;;15.18;4.13;;;;;;;7.48;100.00;98987.63;10462317;28;20033;-80
2023/10/27 17:48:25;;;;;;;62.97;9.50;;;;;;;7.33;100.00;98998.44;10480273;28;20048;-79
2023/10/27 17:53:28;;;;;;;9.63;3.55;;;;;;;7.40;100.00;98990.81;10461043;28;20509;-80
2023/10/27 17:58:31;;;;;;;16.67;4.75;;;;;;;7.32;100.00;98993.22;10461990;28;20041;-80
2023/10/27 18:03:31;;;;;;;;;;;;;;;7.26;100.00;98998.22;10448316;28;20669;-80
2023/10/27 18:08:32;;;;;;;22.10;5.95;;;;;;;7.19;100.00;98987.63;10473944;28;19928;-79
2023/10/27 18:13:32;;;;;;;9.93;4.28;;;;;;;7.17;100.00;98991.00;10465460;28;20123;-78
2023/10/27 18:18:33;;;;;;;9.13;4.13;;;;;;;7.19;100.00;98990.22;10437727;28;20041;-79
2023/10/27 18:23:34;;;;;;;16.37;5.10;;;;;;;7.11;100.00;98991.72;10428723;28;20036;-79
2023/10/27 18:28:35;;;;;;;8.93;4.45;;;;;;;7.10;100.00;98994.25;10461138;28;20041;-78
2023/10/27 18:33:38;;;;;;;12.98;3.70;;;;;;;7.13;100.00;99000.44;10469207;28;20098;-78
2023/10/27 18:38:40;;;;;;;16.30;5.85;;;;;;;7.12;100.00;99002.97;10440070;28;20040;-79
2023/10/27 18:43:41;;;;;;;60.55;12.75;;;;;;;7.04;100.00;98997.56;10466406;28;20025;-78
2023/10/27 18:48:42;;;;;;;111.18;16.08;;;;;;;7.05;100.00;98991.50;10442127;28;20054;-78
2023/10/27 18:53:44;;;;;;;26.60;5.83;;;;;;;6.96;100.00;98979.09;10471206;28;20041;-79
2023/10/27 18:58:45;;;;;;;33.20;7.55;;;;;;;6.94;100.00;98992.88;10461395;28;20374;-79
2023/10/27 19:03:46;;;;;;;9.98;5.18;;;;;;;6.86;100.00;98990.94;10471696;28;20472;-80
2023/10/27 19:08:47;;;;;;;16.43;5.03;;;;;;;6.84;100.00;98994.28;10478509;28;20579;-79
2023/10/27 19:13:47;;;;;;;34.75;8.23;;;;;;;6.78;100.00;98995.00;10470931;28;20127;-78
2023/10/27 19:18:49;;;;;;;57.42;12.25;;;;;;;6.82;100.00;98999.47;10461006;28;20068;-79
2023/10/27 19:23:54;;;;;;;24.80;7.03;;;;;;;6.82;100.00;98999.47;10436328;28;20041;-79
2023/10/27 19:28:55;;;;;;;27.27;6.97;;;;;;;6.75;100.00;99000.97;10475502;28;20044;-80
2023/10/27 19:33:56;;;;;;;15.00;6.80;;;;;;;6.71;100.00;99003.44;10469578;28;20398;-80
2023/10/27 19:38:57;;;;;;;13.05;7.13;;;;;;;6.72;100.00;99006.06;10462861;28;20128;-79
2023/10/27 19:43:58;;;;;;;14.88;6.07;;;;;;;6.72;100.00;99010.38;10445437;28;20127;-80
2023/10/27 19:49:00;;;;;;;19.33;6.47;;;;;;;6.67;100.00;99014.56;10472679;28;20129;-79
2023/10/27 19:54:00;;;;;;;12.80;6.38;;;;;;;6.60;100.00;99019.53;10479968;28;20040;-80
2023/10/27 19:59:01;;;;;;;28.13;9.13;;;;;;;6.62;100.00;99024.78;10465434;28;20115;-78
2023/10/27 20:04:06;;;;;;;14.90;6.35;;;;;;;6.56;100.00;99033.28;10460330;28;20045;-78
2023/10/27 20:09:11;;;;;;;26.52;7.97;;;;;;;6.52;100.00;99038.28;10456138;28;20127;-78
2023/10/27 20:14:11;;;;;;;30.35;9.65;;;;;;;6.58;100.00;99033.31;10441627;28;20032;-78
2023/10/27 20:19:12;;;;;;;15.90;7.55;;;;;;;6.51;100.00;99039.13;10444178;28;20036;-78
2023/10/27 20:24:14;;;;;;;40.97;12.60;;;;;;;6.60;100.00;99048.13;10462154;28;20518;-78
2023/10/27 20:29:15;;;;;;;29.40;10.27;;;;;;;6.56;100.00;99042.75;10455996;28;20033;-78
2023/10/27 20:34:24;;;;;;;17.13;7.75;;;;;;;6.45;100.00;99045.88;10469981;28;20532;-78
2023/10/27 20:39:28;;;;;;;21.13;9.80;;;;;;;6.49;100.00;99052.09;10461456;28;20523;-78
2023/10/27 20:44:28;;;;;;;24.20;9.85;;;;;;;6.46;100.00;99051.97;10454258;28;20542;-79
2023/10/27 20:49:32;;;;;;;65.25;13.18;;;;;;;6.39;100.00;99055.19;10478611;28;20163;-79
2023/10/27 20:54:32;;;;;;;62.20;14.55;;;;;;;6.38;100.00;99056.88;10449556;28;20036;-79
2023/10/27 20:59:37;;;;;;;44.40;11.35;;;;;;;6.38;100.00;99056.03;10469296;28;20115;-78
2023/10/27 21:04:38;;;;;;;20.77;9.10;;;;;;;6.42;100.00;99056.16;10458626;28;20041;-79
2023/10/27 21:09:39;;;;;;;28.85;11.30;;;;;;;6.43;100.00;99070.94;10439603;28;20044;-79
2023/10/27 21:14:40;;;;;;;18.87;8.53;;;;;;;6.40;100.00;99068.22;10444586;28;20553;-78
2023/10/27 21:19:40;;;;;;;37.83;12.23;;;;;;;6.37;100.00;99065.50;10451109;28;20275;-78
2023/10/27 21:24:41;;;;;;;20.42;10.65;;;;;;;6.37;100.00;99069.84;10454418;28;20037;-79
2023/10/27 21:29:41;;;;;;;69.97;17.13;;;;;;;6.33;100.00;99061.03;10455310;28;20124;-79
2023/10/27 21:34:42;;;;;;;29.45;11.65;;;;;;;6.33;100.00;99058.44;10469988;28;20056;-79
2023/10/27 21:39:52;;;;;;;56.13;16.65;;;;;;;6.38;100.00;99053.41;10455842;28;20396;-78
2023/10/27 21:44:52;;;;;;;89.53;19.23;;;;;;;6.39;100.00;99061.25;10473627;28;20109;-78
2023/10/27 21:49:53;;;;;;;64.15;14.48;;;;;;;6.44;100.00;99053.63;10463576;28;20093;-79
2023/10/27 21:54:53;;;;;;;31.83;15.13;;;;;;;6.51;100.00;99054.72;10458285;28;20040;-80
2023/10/27 21:59:55;;;;;;;28.08;11.10;;;;;;;6.50;100.00;99055.53;10474121;28;20135;-79
2023/10/27 22:04:56;;;;;;;22.45;11.63;;;;;;;6.51;100.00;99063.41;10470642;28;20052;-79
2023/10/27 22:09:56;;;;;;;15.50;9.95;;;;;;;6.52;100.00;99056.47;10461301;28;20170;-80
2023/10/27 22:14:57;;;;;;;36.38;14.18;;;;;;;6.54;100.00;99057.41;10471674;28;20120;-80
2023/10/27 22:19:59;;;;;;;23.70;13.05;;;;;;;6.62;100.00;99053.38;10478352;28;20165;-78
2023/10/27 22:25:00;;;;;;;25.07;12.10;;;;;;;6.65;100.00;99056.06;10475248;28;20068;-79
2023/10/27 22:30:00;;;;;;;30.83;12.43;;;;;;;6.75;100.00;99062.50;10471763;28;20502;-79
2023/10/27 22:35:02;;;;;;;22.63;11.48;;;;;;;6.85;100.00;99061.97;10458478;28;20040;-78
2023/10/27 22:40:05;;;;;;;25.73;12.53;;;;;;;6.96;100.00;99074.44;10459351;28;20453;-79
2023/10/27 22:45:06;;;;;;;26.85;12.60;;;;;;;7.04;100.00;99071.25;10474258;28;20038;-79
2023/10/27 22:50:09;;;;;;;29.77;14.23;;;;;;;7.08;100.00;99073.97;10469153;28;20121;-79
2023/10/27 22:55:10;;;;;;;28.70;11.52;;;;;;;7.17;100.00;99079.47;10452258;28;20039;-79